Yelland Airport

Current Flights

Departures
Number Departure To Airline
Arrivals
Number Arrival From Airline
Info
Name: Yelland Airport
Identifier:  ELY/KELY
Local Time:  24. Jun 19:29
Flights per Day
2 flights
Distance: 302km (187mi)
Punctuality
90% (0 flights per day delayed)
Delay Average: 19 minutes
Current Weather
 24 C (Humidity: 14%)
  13kt (24km/h / 14mph) from 220°
22 knots Gusts

  16km (10 mi.)
 
 METAR KELY 250153Z AUTO 22013G22KT 10SM CLR 24/M05 A2996 RMK AO2 PK WND 23026/0101 LTG DSNT N AND NE SLP056 T02441050

Current Delays

Departures
N/A
Arrivals
N/A

Destinations

Top Destinations
Airport Flights
per week
Seats
per week
  Salt Lake City (SLC) 9 - 1 0
  Winnemucca (WMC) 8 - 1 0
  Bountiful (BTF) 0 - 0 0
  Carson City (CSN) 0 - 0 0
  Napa (APC) 0 - 0 0
  McCook (MCK) 0 - 0 0
  Eagle (EGE) 0 - 0 0
  Newburgh (SWF) 0 - 0 0

Airlines & Planes

Top Airlines
Airline Flights
per Day
Seats
per Day
  Ameriflight 2 -
  National Airlines 0 -
Jet Charter Inc ( Franklin Lakes Nj ) 0 -
Nordwind Airlines 0 -
  Flybe Nordic 0 -
Top Plane Types
Model Flights Seats
Beech C-99 Airliner 2.5/day - 0
Pilatus PC-12 0.1/day - 0
Hawker 900XP 0.0/day - 0